sensor_id;sensor_type;location;lat;lon;timestamp;pressure;altitude;pressure_sealevel;temperature;humidity
5283;BME280;15376;48.540;9.268;2023-07-09T00:00:39;97820.41;;;19.47;100.00
5283;BME280;15376;48.540;9.268;2023-07-09T00:03:05;97811.09;;;19.31;100.00
5283;BME280;15376;48.540;9.268;2023-07-09T00:05:30;97825.94;;;19.63;100.00
5283;BME280;15376;48.540;9.268;2023-07-09T00:07:56;97829.47;;;19.52;100.00
5283;BME280;15376;48.540;9.268;2023-07-09T00:10:21;97763.06;;;19.05;100.00
5283;BME280;15376;48.540;9.268;2023-07-09T00:12:47;97787.28;;;19.05;100.00
5283;BME280;15376;48.540;9.268;2023-07-09T00:15:14;97834.25;;;19.20;100.00
5283;BME280;15376;48.540;9.268;2023-07-09T00:17:41;97825.44;;;19.02;100.00
5283;BME280;15376;48.540;9.268;2023-07-09T00:20:15;97836.06;;;18.96;100.00
5283;BME280;15376;48.540;9.268;2023-07-09T00:22:42;97840.69;;;18.89;100.00
5283;BME280;15376;48.540;9.268;2023-07-09T00:25:17;97829.31;;;19.06;100.00
5283;BME280;15376;48.540;9.268;2023-07-09T00:27:43;97831.47;;;19.27;100.00
5283;BME280;15376;48.540;9.268;2023-07-09T00:30:20;97826.13;;;19.39;100.00
5283;BME280;15376;48.540;9.268;2023-07-09T00:32:48;97831.13;;;19.53;100.00
5283;BME280;15376;48.540;9.268;2023-07-09T00:35:13;97834.47;;;19.49;100.00
5283;BME280;15376;48.540;9.268;2023-07-09T00:37:43;97834.19;;;19.39;100.00
5283;BME280;15376;48.540;9.268;2023-07-09T00:40:17;97833.56;;;19.25;100.00
5283;BME280;15376;48.540;9.268;2023-07-09T00:42:46;97837.78;;;19.21;100.00
5283;BME280;15376;48.540;9.268;2023-07-09T00:45:23;97840.22;;;19.11;100.00
5283;BME280;15376;48.540;9.268;2023-07-09T00:47:57;97851.75;;;18.99;100.00
5283;BME280;15376;48.540;9.268;2023-07-09T00:50:41;97843.38;;;19.08;100.00
5283;BME280;15376;48.540;9.268;2023-07-09T00:53:15;97773.47;;;18.71;100.00
5283;BME280;15376;48.540;9.268;2023-07-09T00:55:44;97842.84;;;19.29;100.00
5283;BME280;15376;48.540;9.268;2023-07-09T00:58:13;97844.78;;;19.22;100.00
5283;BME280;15376;48.540;9.268;2023-07-09T01:00:46;97817.53;;;18.88;100.00
5283;BME280;15376;48.540;9.268;2023-07-09T01:03:25;97850.56;;;18.95;100.00
5283;BME280;15376;48.540;9.268;2023-07-09T01:05:54;97848.09;;;18.94;100.00
5283;BME280;15376;48.540;9.268;2023-07-09T01:08:23;97848.91;;;18.94;100.00
5283;BME280;15376;48.540;9.268;2023-07-09T01:10:49;97848.25;;;18.81;100.00
5283;BME280;15376;48.540;9.268;2023-07-09T01:13:16;97855.09;;;18.65;100.00
5283;BME280;15376;48.540;9.268;2023-07-09T01:15:45;97813.81;;;18.16;100.00
5283;BME280;15376;48.540;9.268;2023-07-09T01:18:11;97835.56;;;18.33;100.00
5283;BME280;15376;48.540;9.268;2023-07-09T01:20:38;97857.91;;;18.52;100.00
5283;BME280;15376;48.540;9.268;2023-07-09T01:23:04;97853.56;;;18.51;100.00
5283;BME280;15376;48.540;9.268;2023-07-09T01:25:31;97863.00;;;18.60;100.00
5283;BME280;15376;48.540;9.268;2023-07-09T01:27:57;97859.28;;;18.61;100.00
5283;BME280;15376;48.540;9.268;2023-07-09T01:30:29;97862.34;;;18.64;100.00
5283;BME280;15376;48.540;9.268;2023-07-09T01:32:58;97859.53;;;18.53;100.00
5283;BME280;15376;48.540;9.268;2023-07-09T01:35:24;97857.81;;;18.40;100.00
5283;BME280;15376;48.540;9.268;2023-07-09T01:37:51;97858.41;;;18.24;100.00
5283;BME280;15376;48.540;9.268;2023-07-09T01:40:19;97858.63;;;18.22;100.00
5283;BME280;15376;48.540;9.268;2023-07-09T01:42:45;97866.81;;;18.09;100.00
5283;BME280;15376;48.540;9.268;2023-07-09T01:45:11;97844.25;;;17.92;100.00
5283;BME280;15376;48.540;9.268;2023-07-09T01:47:38;97862.66;;;18.13;100.00
5283;BME280;15376;48.540;9.268;2023-07-09T01:50:05;97853.97;;;18.11;100.00
5283;BME280;15376;48.540;9.268;2023-07-09T01:52:32;97841.25;;;18.00;100.00
5283;BME280;15376;48.540;9.268;2023-07-09T01:54:58;97858.09;;;18.14;100.00
5283;BME280;15376;48.540;9.268;2023-07-09T01:57:28;97861.72;;;18.01;100.00
5283;BME280;15376;48.540;9.268;2023-07-09T02:00:05;97862.53;;;17.83;100.00
5283;BME280;15376;48.540;9.268;2023-07-09T02:02:31;97864.66;;;17.75;100.00
5283;BME280;15376;48.540;9.268;2023-07-09T02:04:58;97874.25;;;17.89;100.00
5283;BME280;15376;48.540;9.268;2023-07-09T02:07:24;97866.66;;;18.04;100.00
5283;BME280;15376;48.540;9.268;2023-07-09T02:09:50;97829.47;;;18.01;100.00
5283;BME280;15376;48.540;9.268;2023-07-09T02:12:17;97861.63;;;18.32;100.00
5283;BME280;15376;48.540;9.268;2023-07-09T02:14:45;97856.72;;;18.29;100.00
5283;BME280;15376;48.540;9.268;2023-07-09T02:17:12;97864.34;;;18.32;100.00
5283;BME280;15376;48.540;9.268;2023-07-09T02:19:37;97865.63;;;18.05;100.00
5283;BME280;15376;48.540;9.268;2023-07-09T02:22:03;97826.84;;;17.45;100.00
5283;BME280;15376;48.540;9.268;2023-07-09T02:24:29;97866.56;;;17.36;100.00
5283;BME280;15376;48.540;9.268;2023-07-09T02:26:55;97866.31;;;17.13;100.00
5283;BME280;15376;48.540;9.268;2023-07-09T02:29:21;97868.88;;;16.94;100.00
5283;BME280;15376;48.540;9.268;2023-07-09T02:31:49;97874.06;;;16.89;100.00
5283;BME280;15376;48.540;9.268;2023-07-09T02:34:14;97860.81;;;16.94;100.00
5283;BME280;15376;48.540;9.268;2023-07-09T02:36:40;97861.81;;;17.07;100.00
5283;BME280;15376;48.540;9.268;2023-07-09T02:39:09;97873.94;;;17.16;100.00
5283;BME280;15376;48.540;9.268;2023-07-09T02:41:35;97868.44;;;17.36;100.00
5283;BME280;15376;48.540;9.268;2023-07-09T02:44:00;97875.16;;;17.51;100.00
5283;BME280;15376;48.540;9.268;2023-07-09T02:46:26;97878.44;;;17.53;100.00
5283;BME280;15376;48.540;9.268;2023-07-09T02:48:51;97885.03;;;17.57;100.00
5283;BME280;15376;48.540;9.268;2023-07-09T02:51:16;97883.28;;;17.70;100.00
5283;BME280;15376;48.540;9.268;2023-07-09T02:53:42;97879.69;;;17.82;100.00
5283;BME280;15376;48.540;9.268;2023-07-09T02:56:07;97887.09;;;17.87;100.00
5283;BME280;15376;48.540;9.268;2023-07-09T02:58:32;97890.22;;;17.84;100.00
5283;BME280;15376;48.540;9.268;2023-07-09T03:00:57;97890.81;;;17.86;100.00
5283;BME280;15376;48.540;9.268;2023-07-09T03:03:23;97884.25;;;18.00;100.00
5283;BME280;15376;48.540;9.268;2023-07-09T03:05:48;97898.31;;;18.02;100.00
5283;BME280;15376;48.540;9.268;2023-07-09T03:08:14;97891.75;;;17.98;100.00
5283;BME280;15376;48.540;9.268;2023-07-09T03:10:42;97889.13;;;17.91;100.00
5283;BME280;15376;48.540;9.268;2023-07-09T03:13:07;97891.94;;;17.72;100.00
5283;BME280;15376;48.540;9.268;2023-07-09T03:15:33;97893.22;;;17.69;100.00
5283;BME280;15376;48.540;9.268;2023-07-09T03:17:58;97893.50;;;17.86;100.00
5283;BME280;15376;48.540;9.268;2023-07-09T03:20:24;97873.00;;;17.60;100.00
5283;BME280;15376;48.540;9.268;2023-07-09T03:22:50;97892.13;;;17.77;100.00
5283;BME280;15376;48.540;9.268;2023-07-09T03:25:16;97881.72;;;17.55;100.00
5283;BME280;15376;48.540;9.268;2023-07-09T03:27:41;97903.72;;;17.39;100.00
5283;BME280;15376;48.540;9.268;2023-07-09T03:30:06;97890.28;;;17.08;100.00
5283;BME280;15376;48.540;9.268;2023-07-09T03:32:32;97899.78;;;17.04;100.00
5283;BME280;15376;48.540;9.268;2023-07-09T03:34:57;97905.16;;;17.04;100.00
5283;BME280;15376;48.540;9.268;2023-07-09T03:37:23;97906.47;;;16.88;100.00
5283;BME280;15376;48.540;9.268;2023-07-09T03:39:48;97905.50;;;16.76;100.00
5283;BME280;15376;48.540;9.268;2023-07-09T03:42:13;97919.31;;;16.73;100.00
5283;BME280;15376;48.540;9.268;2023-07-09T03:44:39;97916.44;;;16.67;100.00
5283;BME280;15376;48.540;9.268;2023-07-09T03:47:05;97921.81;;;16.54;100.00
5283;BME280;15376;48.540;9.268;2023-07-09T03:49:31;97919.34;;;16.40;100.00
5283;BME280;15376;48.540;9.268;2023-07-09T03:51:56;97924.13;;;16.38;100.00
5283;BME280;15376;48.540;9.268;2023-07-09T03:54:21;97918.31;;;16.41;100.00
5283;BME280;15376;48.540;9.268;2023-07-09T03:56:47;97923.06;;;16.45;100.00
5283;BME280;15376;48.540;9.268;2023-07-09T03:59:12;97928.00;;;16.55;100.00
5283;BME280;15376;48.540;9.268;2023-07-09T04:01:37;97919.75;;;16.70;100.00
5283;BME280;15376;48.540;9.268;2023-07-09T04:04:03;97916.63;;;16.79;100.00
5283;BME280;15376;48.540;9.268;2023-07-09T04:06:28;97916.75;;;16.91;100.00
5283;BME280;15376;48.540;9.268;2023-07-09T04:08:54;97917.50;;;17.11;100.00
5283;BME280;15376;48.540;9.268;2023-07-09T04:11:19;97920.31;;;17.23;100.00
5283;BME280;15376;48.540;9.268;2023-07-09T04:13:44;97909.53;;;17.36;100.00
5283;BME280;15376;48.540;9.268;2023-07-09T04:16:10;97908.97;;;17.59;100.00
5283;BME280;15376;48.540;9.268;2023-07-09T04:18:36;97910.16;;;17.70;100.00
5283;BME280;15376;48.540;9.268;2023-07-09T04:21:01;97904.94;;;17.75;100.00
5283;BME280;15376;48.540;9.268;2023-07-09T04:23:27;97914.31;;;17.65;100.00
5283;BME280;15376;48.540;9.268;2023-07-09T04:25:53;97915.03;;;17.79;100.00
5283;BME280;15376;48.540;9.268;2023-07-09T04:28:18;97913.75;;;17.88;100.00
5283;BME280;15376;48.540;9.268;2023-07-09T04:30:50;97911.97;;;17.76;100.00
5283;BME280;15376;48.540;9.268;2023-07-09T04:33:18;97863.84;;;17.43;100.00
5283;BME280;15376;48.540;9.268;2023-07-09T04:35:45;97909.66;;;17.79;100.00
5283;BME280;15376;48.540;9.268;2023-07-09T04:38:10;97911.44;;;17.92;100.00
5283;BME280;15376;48.540;9.268;2023-07-09T04:40:36;97922.28;;;18.04;100.00
5283;BME280;15376;48.540;9.268;2023-07-09T04:43:01;97911.41;;;18.17;100.00
5283;BME280;15376;48.540;9.268;2023-07-09T04:45:26;97882.56;;;18.06;100.00
5283;BME280;15376;48.540;9.268;2023-07-09T04:47:52;97913.78;;;18.31;100.00
5283;BME280;15376;48.540;9.268;2023-07-09T04:50:18;97914.66;;;18.44;100.00
5283;BME280;15376;48.540;9.268;2023-07-09T04:52:43;97915.88;;;18.48;100.00
5283;BME280;15376;48.540;9.268;2023-07-09T04:55:09;97918.50;;;18.54;100.00
5283;BME280;15376;48.540;9.268;2023-07-09T04:57:34;97911.47;;;18.53;100.00
5283;BME280;15376;48.540;9.268;2023-07-09T05:00:00;97915.09;;;18.65;100.00
5283;BME280;15376;48.540;9.268;2023-07-09T05:02:25;97919.59;;;18.72;100.00
5283;BME280;15376;48.540;9.268;2023-07-09T05:04:51;97917.88;;;18.77;100.00
5283;BME280;15376;48.540;9.268;2023-07-09T05:07:16;97918.97;;;18.88;100.00
5283;BME280;15376;48.540;9.268;2023-07-09T05:09:42;97918.59;;;19.03;100.00
5283;BME280;15376;48.540;9.268;2023-07-09T05:12:07;97917.63;;;19.15;100.00
5283;BME280;15376;48.540;9.268;2023-07-09T05:14:33;97923.84;;;19.27;100.00
5283;BME280;15376;48.540;9.268;2023-07-09T05:16:59;97927.66;;;19.38;100.00
5283;BME280;15376;48.540;9.268;2023-07-09T05:19:24;97931.22;;;19.50;100.00
5283;BME280;15376;48.540;9.268;2023-07-09T05:21:49;97930.44;;;19.61;100.00
5283;BME280;15376;48.540;9.268;2023-07-09T05:24:15;97929.22;;;19.76;100.00
5283;BME280;15376;48.540;9.268;2023-07-09T05:26:40;97916.69;;;19.81;100.00
5283;BME280;15376;48.540;9.268;2023-07-09T05:29:06;97929.59;;;19.91;100.00
5283;BME280;15376;48.540;9.268;2023-07-09T05:31:32;97919.53;;;19.98;100.00
5283;BME280;15376;48.540;9.268;2023-07-09T05:34:01;97911.19;;;19.99;100.00
5283;BME280;15376;48.540;9.268;2023-07-09T05:36:28;97927.97;;;20.13;100.00
5283;BME280;15376;48.540;9.268;2023-07-09T05:38:54;97927.78;;;20.26;100.00
5283;BME280;15376;48.540;9.268;2023-07-09T05:41:20;97931.88;;;20.41;100.00
5283;BME280;15376;48.540;9.268;2023-07-09T05:43:46;97938.56;;;20.50;100.00
5283;BME280;15376;48.540;9.268;2023-07-09T05:46:12;97934.59;;;20.64;100.00
5283;BME280;15376;48.540;9.268;2023-07-09T05:48:38;97940.66;;;20.83;99.49
5283;BME280;15376;48.540;9.268;2023-07-09T05:51:03;97928.88;;;21.01;98.78
5283;BME280;15376;48.540;9.268;2023-07-09T05:53:29;97938.03;;;21.11;96.61
5283;BME280;15376;48.540;9.268;2023-07-09T05:55:55;97923.81;;;21.16;95.92
5283;BME280;15376;48.540;9.268;2023-07-09T05:58:21;97940.66;;;21.35;94.88
5283;BME280;15376;48.540;9.268;2023-07-09T06:00:50;97928.56;;;21.37;92.74
5283;BME280;15376;48.540;9.268;2023-07-09T06:03:19;97932.28;;;21.48;91.96
5283;BME280;15376;48.540;9.268;2023-07-09T06:05:44;97935.50;;;21.61;91.51
5283;BME280;15376;48.540;9.268;2023-07-09T06:08:10;97946.34;;;21.78;90.11
5283;BME280;15376;48.540;9.268;2023-07-09T06:10:38;97941.28;;;21.82;87.45
5283;BME280;15376;48.540;9.268;2023-07-09T06:13:05;97943.09;;;21.93;88.52
5283;BME280;15376;48.540;9.268;2023-07-09T06:15:31;97937.97;;;22.08;88.36
5283;BME280;15376;48.540;9.268;2023-07-09T06:17:56;97937.88;;;22.20;86.84
5283;BME280;15376;48.540;9.268;2023-07-09T06:20:21;97932.47;;;22.20;86.80
5283;BME280;15376;48.540;9.268;2023-07-09T06:22:47;97937.06;;;22.36;85.84
5283;BME280;15376;48.540;9.268;2023-07-09T06:25:12;97946.22;;;22.52;84.19
5283;BME280;15376;48.540;9.268;2023-07-09T06:27:38;97943.09;;;22.43;83.91
5283;BME280;15376;48.540;9.268;2023-07-09T06:30:03;97934.41;;;22.58;84.20
5283;BME280;15376;48.540;9.268;2023-07-09T06:32:29;97941.38;;;22.71;82.82
5283;BME280;15376;48.540;9.268;2023-07-09T06:34:54;97941.91;;;22.89;84.13
5283;BME280;15376;48.540;9.268;2023-07-09T06:37:19;97947.66;;;22.93;83.55
5283;BME280;15376;48.540;9.268;2023-07-09T06:39:45;97931.72;;;22.97;83.29
5283;BME280;15376;48.540;9.268;2023-07-09T06:42:10;97946.63;;;23.21;82.67
5283;BME280;15376;48.540;9.268;2023-07-09T06:44:36;97930.81;;;23.35;82.86
5283;BME280;15376;48.540;9.268;2023-07-09T06:47:01;97928.78;;;23.47;82.18
5283;BME280;15376;48.540;9.268;2023-07-09T06:49:27;97935.94;;;23.53;80.60
5283;BME280;15376;48.540;9.268;2023-07-09T06:51:53;97951.06;;;23.76;80.15
5283;BME280;15376;48.540;9.268;2023-07-09T06:54:18;97930.19;;;23.76;78.89
5283;BME280;15376;48.540;9.268;2023-07-09T06:56:43;97935.41;;;23.83;78.35
5283;BME280;15376;48.540;9.268;2023-07-09T06:59:09;97952.47;;;24.10;77.97
5283;BME280;15376;48.540;9.268;2023-07-09T07:01:35;97948.72;;;24.16;77.53
5283;BME280;15376;48.540;9.268;2023-07-09T07:04:00;97956.34;;;24.19;77.85
5283;BME280;15376;48.540;9.268;2023-07-09T07:06:26;97947.25;;;24.31;77.91
5283;BME280;15376;48.540;9.268;2023-07-09T07:08:51;97936.44;;;24.36;77.12
5283;BME280;15376;48.540;9.268;2023-07-09T07:11:17;97930.28;;;24.18;76.96
5283;BME280;15376;48.540;9.268;2023-07-09T07:13:43;97929.88;;;24.32;76.88
5283;BME280;15376;48.540;9.268;2023-07-09T07:16:10;97943.00;;;24.45;77.27
5283;BME280;15376;48.540;9.268;2023-07-09T07:18:36;97944.41;;;24.52;76.58
5283;BME280;15376;48.540;9.268;2023-07-09T07:21:02;97922.47;;;24.59;76.05
5283;BME280;15376;48.540;9.268;2023-07-09T07:23:28;97908.97;;;24.74;75.47
5283;BME280;15376;48.540;9.268;2023-07-09T07:25:53;97924.53;;;24.94;75.23
5283;BME280;15376;48.540;9.268;2023-07-09T07:28:20;97921.38;;;25.07;74.07
5283;BME280;15376;48.540;9.268;2023-07-09T07:30:45;97930.41;;;25.28;73.00
5283;BME280;15376;48.540;9.268;2023-07-09T07:33:13;97935.91;;;25.43;73.58
5283;BME280;15376;48.540;9.268;2023-07-09T07:35:39;97921.53;;;25.53;73.07
5283;BME280;15376;48.540;9.268;2023-07-09T07:38:04;97933.03;;;25.80;72.55
5283;BME280;15376;48.540;9.268;2023-07-09T07:40:30;97936.88;;;25.95;69.76
5283;BME280;15376;48.540;9.268;2023-07-09T07:42:55;97934.41;;;26.08;68.82
5283;BME280;15376;48.540;9.268;2023-07-09T07:45:21;97925.41;;;26.03;70.16
5283;BME280;15376;48.540;9.268;2023-07-09T07:47:46;97912.91;;;26.07;71.16
5283;BME280;15376;48.540;9.268;2023-07-09T07:50:13;97922.44;;;26.30;69.14
5283;BME280;15376;48.540;9.268;2023-07-09T07:52:38;97911.03;;;26.38;67.87
5283;BME280;15376;48.540;9.268;2023-07-09T07:55:05;97921.88;;;26.58;67.10
5283;BME280;15376;48.540;9.268;2023-07-09T07:57:31;97911.50;;;26.75;67.56
5283;BME280;15376;48.540;9.268;2023-07-09T07:59:56;97913.59;;;26.94;66.96
5283;BME280;15376;48.540;9.268;2023-07-09T08:02:23;97914.16;;;27.01;67.44
5283;BME280;15376;48.540;9.268;2023-07-09T08:04:49;97907.06;;;27.00;65.89
5283;BME280;15376;48.540;9.268;2023-07-09T08:07:16;97909.25;;;26.92;64.31
5283;BME280;15376;48.540;9.268;2023-07-09T08:09:42;97905.44;;;26.83;66.79
5283;BME280;15376;48.540;9.268;2023-07-09T08:12:10;97890.44;;;26.91;64.58
5283;BME280;15376;48.540;9.268;2023-07-09T08:14:37;97903.25;;;27.01;63.23
5283;BME280;15376;48.540;9.268;2023-07-09T08:17:04;97900.78;;;27.09;59.17
5283;BME280;15376;48.540;9.268;2023-07-09T08:19:30;97908.00;;;27.34;57.96
5283;BME280;15376;48.540;9.268;2023-07-09T08:21:56;97903.03;;;27.46;59.06
5283;BME280;15376;48.540;9.268;2023-07-09T08:24:21;97913.34;;;27.54;58.82
5283;BME280;15376;48.540;9.268;2023-07-09T08:26:47;97907.09;;;27.59;58.86
5283;BME280;15376;48.540;9.268;2023-07-09T08:29:13;97887.56;;;27.76;55.33
5283;BME280;15376;48.540;9.268;2023-07-09T08:31:38;97901.69;;;27.88;57.41
5283;BME280;15376;48.540;9.268;2023-07-09T08:34:05;97914.47;;;27.98;55.45
5283;BME280;15376;48.540;9.268;2023-07-09T08:36:32;97911.00;;;27.82;55.59
5283;BME280;15376;48.540;9.268;2023-07-09T08:38:58;97912.03;;;27.91;53.53
5283;BME280;15376;48.540;9.268;2023-07-09T08:48:54;97909.38;;;28.49;51.83
5283;BME280;15376;48.540;9.268;2023-07-09T08:51:28;97904.66;;;28.54;51.84
5283;BME280;15376;48.540;9.268;2023-07-09T08:53:59;97905.06;;;28.72;52.55
5283;BME280;15376;48.540;9.268;2023-07-09T08:56:26;97904.13;;;28.81;52.07
5283;BME280;15376;48.540;9.268;2023-07-09T08:58:55;97911.47;;;29.10;51.30
5283;BME280;15376;48.540;9.268;2023-07-09T09:01:38;97904.75;;;29.21;51.09
5283;BME280;15376;48.540;9.268;2023-07-09T09:04:19;97917.25;;;29.27;49.18
5283;BME280;15376;48.540;9.268;2023-07-09T09:06:48;97912.38;;;29.24;49.11
5283;BME280;15376;48.540;9.268;2023-07-09T09:09:31;97884.13;;;29.10;50.50
5283;BME280;15376;48.540;9.268;2023-07-09T09:14:39;97911.03;;;29.45;50.42
5283;BME280;15376;48.540;9.268;2023-07-09T09:17:12;97903.69;;;29.60;49.21
5283;BME280;15376;48.540;9.268;2023-07-09T09:19:45;97918.06;;;29.70;47.50
5283;BME280;15376;48.540;9.268;2023-07-09T09:22:13;97913.41;;;29.71;47.93
5283;BME280;15376;48.540;9.268;2023-07-09T09:27:27;97912.97;;;29.82;46.50
5283;BME280;15376;48.540;9.268;2023-07-09T09:29:52;97883.50;;;29.93;46.18
5283;BME280;15376;48.540;9.268;2023-07-09T09:32:26;97899.56;;;30.32;48.21
5283;BME280;15376;48.540;9.268;2023-07-09T09:34:52;97874.03;;;30.18;47.64
5283;BME280;15376;48.540;9.268;2023-07-09T09:37:30;97904.84;;;30.75;44.11
5283;BME280;15376;48.540;9.268;2023-07-09T09:39:56;97899.97;;;30.85;44.04
5283;BME280;15376;48.540;9.268;2023-07-09T09:42:24;97901.06;;;30.84;45.22
5283;BME280;15376;48.540;9.268;2023-07-09T09:44:53;97905.44;;;30.85;43.48
5283;BME280;15376;48.540;9.268;2023-07-09T09:47:18;97911.75;;;31.00;43.69
5283;BME280;15376;48.540;9.268;2023-07-09T09:49:44;97910.44;;;31.25;43.72
5283;BME280;15376;48.540;9.268;2023-07-09T09:52:14;97908.97;;;31.55;42.71
5283;BME280;15376;48.540;9.268;2023-07-09T09:54:41;97913.63;;;31.68;42.76
5283;BME280;15376;48.540;9.268;2023-07-09T09:57:23;97915.16;;;31.60;39.35
5283;BME280;15376;48.540;9.268;2023-07-09T09:59:49;97901.25;;;31.57;41.54
5283;BME280;15376;48.540;9.268;2023-07-09T10:02:20;97904.72;;;31.48;41.57
5283;BME280;15376;48.540;9.268;2023-07-09T10:04:46;97898.00;;;31.55;40.11
5283;BME280;15376;48.540;9.268;2023-07-09T10:12:22;97879.31;;;32.01;41.01
5283;BME280;15376;48.540;9.268;2023-07-09T10:17:43;97880.84;;;32.30;40.65
5283;BME280;15376;48.540;9.268;2023-07-09T10:22:57;97883.91;;;32.99;38.37
5283;BME280;15376;48.540;9.268;2023-07-09T10:25:40;97880.31;;;33.64;36.90
5283;BME280;15376;48.540;9.268;2023-07-09T10:36:41;97893.94;;;38.81;27.37
5283;BME280;15376;48.540;9.268;2023-07-09T10:39:19;97879.34;;;39.00;27.04
5283;BME280;15376;48.540;9.268;2023-07-09T10:41:49;97884.41;;;39.99;25.04
5283;BME280;15376;48.540;9.268;2023-07-09T10:44:20;97877.09;;;39.91;26.92
5283;BME280;15376;48.540;9.268;2023-07-09T10:46:52;97883.81;;;40.10;26.41
5283;BME280;15376;48.540;9.268;2023-07-09T10:49:19;97870.44;;;41.29;24.42
5283;BME280;15376;48.540;9.268;2023-07-09T10:51:52;97859.38;;;41.93;24.30
5283;BME280;15376;48.540;9.268;2023-07-09T10:57:29;97869.78;;;43.14;21.97
5283;BME280;15376;48.540;9.268;2023-07-09T10:59:56;97860.25;;;43.92;20.98
5283;BME280;15376;48.540;9.268;2023-07-09T11:02:30;97859.31;;;43.04;22.87
5283;BME280;15376;48.540;9.268;2023-07-09T11:05:05;97858.16;;;43.71;22.94
5283;BME280;15376;48.540;9.268;2023-07-09T11:10:25;97856.06;;;45.15;20.88
5283;BME280;15376;48.540;9.268;2023-07-09T11:15:57;97838.44;;;44.86;19.21
5283;BME280;15376;48.540;9.268;2023-07-09T11:18:26;97848.03;;;44.71;18.81
5283;BME280;15376;48.540;9.268;2023-07-09T11:21:07;97841.53;;;44.17;19.89
5283;BME280;15376;48.540;9.268;2023-07-09T11:23:59;97838.84;;;43.48;22.06
5283;BME280;15376;48.540;9.268;2023-07-09T11:26:33;97837.63;;;44.75;19.65
5283;BME280;15376;48.540;9.268;2023-07-09T11:31:43;97837.22;;;44.66;19.60
5283;BME280;15376;48.540;9.268;2023-07-09T11:34:17;97827.63;;;44.92;19.63
5283;BME280;15376;48.540;9.268;2023-07-09T11:42:47;97824.41;;;45.14;17.24
5283;BME280;15376;48.540;9.268;2023-07-09T11:45:14;97823.06;;;43.91;19.57
5283;BME280;15376;48.540;9.268;2023-07-09T11:47:47;97805.19;;;44.67;18.30
5283;BME280;15376;48.540;9.268;2023-07-09T11:50:28;97812.81;;;44.95;17.72
5283;BME280;15376;48.540;9.268;2023-07-09T11:55:56;97822.00;;;45.20;18.30
5283;BME280;15376;48.540;9.268;2023-07-09T11:58:21;97831.22;;;45.10;16.77
5283;BME280;15376;48.540;9.268;2023-07-09T12:00:49;97810.94;;;43.66;19.10
5283;BME280;15376;48.540;9.268;2023-07-09T12:03:38;97802.41;;;44.63;18.40
5283;BME280;15376;48.540;9.268;2023-07-09T12:06:21;97798.75;;;44.31;19.92
5283;BME280;15376;48.540;9.268;2023-07-09T12:08:48;97788.66;;;44.01;17.71
5283;BME280;15376;48.540;9.268;2023-07-09T12:11:22;97818.31;;;44.13;18.11
5283;BME280;15376;48.540;9.268;2023-07-09T12:13:48;97799.19;;;43.35;18.03
5283;BME280;15376;48.540;9.268;2023-07-09T12:16:29;97802.72;;;42.70;18.98
5283;BME280;15376;48.540;9.268;2023-07-09T12:18:55;97808.03;;;42.82;21.34
5283;BME280;15376;48.540;9.268;2023-07-09T12:21:22;97807.97;;;43.34;19.47
5283;BME280;15376;48.540;9.268;2023-07-09T12:23:48;97806.78;;;43.31;19.57
5283;BME280;15376;48.540;9.268;2023-07-09T12:26:17;97805.22;;;43.41;18.38
5283;BME280;15376;48.540;9.268;2023-07-09T12:28:42;97784.69;;;43.99;19.26
5283;BME280;15376;48.540;9.268;2023-07-09T12:31:15;97798.09;;;43.54;19.40
5283;BME280;15376;48.540;9.268;2023-07-09T12:33:52;97794.78;;;44.53;17.46
5283;BME280;15376;48.540;9.268;2023-07-09T12:36:18;97795.91;;;44.06;21.00
5283;BME280;15376;48.540;9.268;2023-07-09T12:39:00;97797.19;;;44.94;18.67
5283;BME280;15376;48.540;9.268;2023-07-09T12:41:34;97806.78;;;45.14;16.65
5283;BME280;15376;48.540;9.268;2023-07-09T12:44:01;97790.38;;;44.48;17.16
5283;BME280;15376;48.540;9.268;2023-07-09T12:46:27;97788.78;;;44.62;17.77
5283;BME280;15376;48.540;9.268;2023-07-09T12:48:54;97780.38;;;44.65;19.04
5283;BME280;15376;48.540;9.268;2023-07-09T12:51:22;97767.00;;;45.51;17.25
5283;BME280;15376;48.540;9.268;2023-07-09T12:54:03;97784.28;;;46.23;16.72
5283;BME280;15376;48.540;9.268;2023-07-09T12:56:37;97791.63;;;46.02;15.28
5283;BME280;15376;48.540;9.268;2023-07-09T12:59:08;97772.69;;;45.30;16.82
5283;BME280;15376;48.540;9.268;2023-07-09T13:01:40;97768.75;;;44.84;17.81
5283;BME280;15376;48.540;9.268;2023-07-09T13:04:11;97741.53;;;44.85;16.44
5283;BME280;15376;48.540;9.268;2023-07-09T13:06:38;97757.31;;;45.66;16.57
5283;BME280;15376;48.540;9.268;2023-07-09T13:09:14;97754.63;;;45.38;17.57
5283;BME280;15376;48.540;9.268;2023-07-09T13:11:40;97733.66;;;45.64;14.92
5283;BME280;15376;48.540;9.268;2023-07-09T13:14:19;97744.03;;;45.77;15.18
5283;BME280;15376;48.540;9.268;2023-07-09T13:16:44;97758.34;;;44.57;15.28
5283;BME280;15376;48.540;9.268;2023-07-09T13:19:10;97738.66;;;43.89;16.82
5283;BME280;15376;48.540;9.268;2023-07-09T13:21:36;97749.47;;;44.01;16.21
5283;BME280;15376;48.540;9.268;2023-07-09T13:24:17;97740.91;;;43.48;16.93
5283;BME280;15376;48.540;9.268;2023-07-09T13:26:44;97735.38;;;42.86;16.89
5283;BME280;15376;48.540;9.268;2023-07-09T13:29:15;97752.25;;;43.00;16.39
5283;BME280;15376;48.540;9.268;2023-07-09T13:31:41;97747.84;;;42.44;18.39
5283;BME280;15376;48.540;9.268;2023-07-09T13:34:18;97723.91;;;42.03;18.92
5283;BME280;15376;48.540;9.268;2023-07-09T13:36:43;97741.34;;;42.33;19.48
5283;BME280;15376;48.540;9.268;2023-07-09T13:39:12;97732.81;;;42.63;17.52
5283;BME280;15376;48.540;9.268;2023-07-09T13:41:45;97752.56;;;42.40;17.28
5283;BME280;15376;48.540;9.268;2023-07-09T13:44:13;97738.06;;;42.68;17.37
5283;BME280;15376;48.540;9.268;2023-07-09T13:46:39;97738.69;;;42.07;17.73
5283;BME280;15376;48.540;9.268;2023-07-09T13:49:13;97735.97;;;42.58;18.96
5283;BME280;15376;48.540;9.268;2023-07-09T13:51:41;97732.59;;;43.62;17.72
5283;BME280;15376;48.540;9.268;2023-07-09T13:54:33;97743.81;;;43.69;15.34
5283;BME280;15376;48.540;9.268;2023-07-09T13:57:06;97733.75;;;43.61;16.23
5283;BME280;15376;48.540;9.268;2023-07-09T13:59:32;97742.13;;;43.50;15.54
5283;BME280;15376;48.540;9.268;2023-07-09T14:01:58;97723.00;;;43.70;16.23